sensor_id;sensor_type;location;lat;lon;timestamp;temperature;humidity
16263;DHT22;8239;48.594;8.598;2023-07-24T00:00:17;16.30;98.80
16263;DHT22;8239;48.594;8.598;2023-07-24T00:02:44;16.30;99.20
16263;DHT22;8239;48.594;8.598;2023-07-24T00:05:11;16.30;99.80
16263;DHT22;8239;48.594;8.598;2023-07-24T00:07:38;16.20;99.90
16263;DHT22;8239;48.594;8.598;2023-07-24T00:10:07;16.20;99.90
16263;DHT22;8239;48.594;8.598;2023-07-24T00:12:34;16.20;99.90
16263;DHT22;8239;48.594;8.598;2023-07-24T00:15:01;16.20;99.90
16263;DHT22;8239;48.594;8.598;2023-07-24T00:17:28;16.20;99.90
16263;DHT22;8239;48.594;8.598;2023-07-24T00:19:55;16.20;99.90
16263;DHT22;8239;48.594;8.598;2023-07-24T00:22:22;16.20;99.90
16263;DHT22;8239;48.594;8.598;2023-07-24T00:24:49;16.20;99.90
16263;DHT22;8239;48.594;8.598;2023-07-24T00:27:17;16.10;99.90
16263;DHT22;8239;48.594;8.598;2023-07-24T00:29:44;16.10;99.90
16263;DHT22;8239;48.594;8.598;2023-07-24T00:32:12;16.00;99.90
16263;DHT22;8239;48.594;8.598;2023-07-24T00:34:39;16.00;99.90
16263;DHT22;8239;48.594;8.598;2023-07-24T00:37:06;15.90;99.90
16263;DHT22;8239;48.594;8.598;2023-07-24T00:39:33;15.90;99.90
16263;DHT22;8239;48.594;8.598;2023-07-24T00:42:00;15.80;99.90
16263;DHT22;8239;48.594;8.598;2023-07-24T00:44:28;15.70;99.90
16263;DHT22;8239;48.594;8.598;2023-07-24T00:46:55;15.60;99.90
16263;DHT22;8239;48.594;8.598;2023-07-24T00:49:22;15.50;99.90
16263;DHT22;8239;48.594;8.598;2023-07-24T00:51:49;15.40;99.90
16263;DHT22;8239;48.594;8.598;2023-07-24T00:54:17;15.30;99.90
16263;DHT22;8239;48.594;8.598;2023-07-24T00:56:45;15.20;99.90
16263;DHT22;8239;48.594;8.598;2023-07-24T00:59:12;15.10;99.90
16263;DHT22;8239;48.594;8.598;2023-07-24T01:01:42;15.00;99.90
16263;DHT22;8239;48.594;8.598;2023-07-24T01:04:09;14.90;99.90
16263;DHT22;8239;48.594;8.598;2023-07-24T01:06:36;14.90;99.90
16263;DHT22;8239;48.594;8.598;2023-07-24T01:09:03;14.80;99.90
16263;DHT22;8239;48.594;8.598;2023-07-24T01:11:35;14.80;99.90
16263;DHT22;8239;48.594;8.598;2023-07-24T01:14:08;14.70;99.90
16263;DHT22;8239;48.594;8.598;2023-07-24T01:16:37;14.70;99.90
16263;DHT22;8239;48.594;8.598;2023-07-24T01:19:12;14.60;99.90
16263;DHT22;8239;48.594;8.598;2023-07-24T01:21:49;14.60;99.90
16263;DHT22;8239;48.594;8.598;2023-07-24T01:24:25;14.50;99.90
16263;DHT22;8239;48.594;8.598;2023-07-24T01:26:58;14.50;99.90
16263;DHT22;8239;48.594;8.598;2023-07-24T01:29:25;14.50;99.90
16263;DHT22;8239;48.594;8.598;2023-07-24T01:31:51;14.40;99.90
16263;DHT22;8239;48.594;8.598;2023-07-24T01:34:19;14.40;99.90
16263;DHT22;8239;48.594;8.598;2023-07-24T01:36:46;14.40;99.90
16263;DHT22;8239;48.594;8.598;2023-07-24T01:39:14;14.50;99.90
16263;DHT22;8239;48.594;8.598;2023-07-24T01:41:41;14.50;99.90
16263;DHT22;8239;48.594;8.598;2023-07-24T01:44:10;14.50;99.90
16263;DHT22;8239;48.594;8.598;2023-07-24T01:46:37;14.60;99.90
16263;DHT22;8239;48.594;8.598;2023-07-24T01:49:04;14.60;99.90
16263;DHT22;8239;48.594;8.598;2023-07-24T01:51:31;14.60;99.90
16263;DHT22;8239;48.594;8.598;2023-07-24T01:53:58;14.60;99.90
16263;DHT22;8239;48.594;8.598;2023-07-24T01:56:25;14.60;99.90
16263;DHT22;8239;48.594;8.598;2023-07-24T01:58:52;14.60;99.90
16263;DHT22;8239;48.594;8.598;2023-07-24T02:01:20;14.60;99.90
16263;DHT22;8239;48.594;8.598;2023-07-24T02:03:47;14.60;99.90
16263;DHT22;8239;48.594;8.598;2023-07-24T02:06:14;14.60;99.90
16263;DHT22;8239;48.594;8.598;2023-07-24T02:08:41;14.50;99.90
16263;DHT22;8239;48.594;8.598;2023-07-24T02:11:14;14.50;99.90
16263;DHT22;8239;48.594;8.598;2023-07-24T02:13:42;14.40;99.90
16263;DHT22;8239;48.594;8.598;2023-07-24T02:16:09;14.30;99.90
16263;DHT22;8239;48.594;8.598;2023-07-24T02:18:38;14.30;99.90
16263;DHT22;8239;48.594;8.598;2023-07-24T02:21:05;14.20;99.90
16263;DHT22;8239;48.594;8.598;2023-07-24T02:23:32;14.10;99.90
16263;DHT22;8239;48.594;8.598;2023-07-24T02:25:59;14.00;99.90
16263;DHT22;8239;48.594;8.598;2023-07-24T02:28:26;14.00;99.90
16263;DHT22;8239;48.594;8.598;2023-07-24T02:30:53;13.90;99.90
16263;DHT22;8239;48.594;8.598;2023-07-24T02:33:21;13.90;99.90
16263;DHT22;8239;48.594;8.598;2023-07-24T02:35:51;13.80;99.90
16263;DHT22;8239;48.594;8.598;2023-07-24T02:38:19;13.80;99.90
16263;DHT22;8239;48.594;8.598;2023-07-24T02:40:46;13.70;99.90
16263;DHT22;8239;48.594;8.598;2023-07-24T02:43:13;13.70;99.90
16263;DHT22;8239;48.594;8.598;2023-07-24T02:45:41;13.60;99.90
16263;DHT22;8239;48.594;8.598;2023-07-24T02:48:07;13.50;99.90
16263;DHT22;8239;48.594;8.598;2023-07-24T02:50:34;13.50;99.90
16263;DHT22;8239;48.594;8.598;2023-07-24T02:53:03;13.50;99.90
16263;DHT22;8239;48.594;8.598;2023-07-24T02:55:30;13.40;99.90
16263;DHT22;8239;48.594;8.598;2023-07-24T02:57:57;13.30;99.90
16263;DHT22;8239;48.594;8.598;2023-07-24T03:00:24;13.30;99.90
16263;DHT22;8239;48.594;8.598;2023-07-24T03:02:51;13.20;99.90
16263;DHT22;8239;48.594;8.598;2023-07-24T03:05:18;13.20;99.90
16263;DHT22;8239;48.594;8.598;2023-07-24T03:07:45;13.20;99.90
16263;DHT22;8239;48.594;8.598;2023-07-24T03:10:14;13.10;99.90
16263;DHT22;8239;48.594;8.598;2023-07-24T03:12:40;13.10;99.90
16263;DHT22;8239;48.594;8.598;2023-07-24T03:15:08;13.00;99.90
16263;DHT22;8239;48.594;8.598;2023-07-24T03:17:35;13.00;99.90
16263;DHT22;8239;48.594;8.598;2023-07-24T03:20:08;13.00;99.90
16263;DHT22;8239;48.594;8.598;2023-07-24T03:22:36;13.00;99.90
16263;DHT22;8239;48.594;8.598;2023-07-24T03:25:03;12.90;99.90
16263;DHT22;8239;48.594;8.598;2023-07-24T03:27:30;12.90;99.90
16263;DHT22;8239;48.594;8.598;2023-07-24T03:29:57;12.90;99.90
16263;DHT22;8239;48.594;8.598;2023-07-24T03:32:24;12.90;99.90
16263;DHT22;8239;48.594;8.598;2023-07-24T03:34:51;12.90;99.90
16263;DHT22;8239;48.594;8.598;2023-07-24T03:37:18;12.90;99.90
16263;DHT22;8239;48.594;8.598;2023-07-24T03:39:45;12.90;99.90
16263;DHT22;8239;48.594;8.598;2023-07-24T03:42:23;13.00;99.90
16263;DHT22;8239;48.594;8.598;2023-07-24T03:44:52;13.00;99.90
16263;DHT22;8239;48.594;8.598;2023-07-24T03:47:19;13.00;99.90
16263;DHT22;8239;48.594;8.598;2023-07-24T03:49:46;13.10;99.90
16263;DHT22;8239;48.594;8.598;2023-07-24T03:52:13;13.10;99.90
16263;DHT22;8239;48.594;8.598;2023-07-24T03:54:39;13.10;99.90
16263;DHT22;8239;48.594;8.598;2023-07-24T03:57:06;13.20;99.90
16263;DHT22;8239;48.594;8.598;2023-07-24T03:59:33;13.20;99.90
16263;DHT22;8239;48.594;8.598;2023-07-24T04:02:02;13.30;99.90
16263;DHT22;8239;48.594;8.598;2023-07-24T04:04:29;13.30;99.90
16263;DHT22;8239;48.594;8.598;2023-07-24T04:06:56;13.30;99.90
16263;DHT22;8239;48.594;8.598;2023-07-24T04:09:23;13.40;99.90
16263;DHT22;8239;48.594;8.598;2023-07-24T04:11:50;13.40;99.90
16263;DHT22;8239;48.594;8.598;2023-07-24T04:14:17;13.50;99.90
16263;DHT22;8239;48.594;8.598;2023-07-24T04:16:44;13.50;99.90
16263;DHT22;8239;48.594;8.598;2023-07-24T04:19:12;13.60;99.90
16263;DHT22;8239;48.594;8.598;2023-07-24T04:21:39;13.70;99.90
16263;DHT22;8239;48.594;8.598;2023-07-24T04:24:07;13.80;99.90
16263;DHT22;8239;48.594;8.598;2023-07-24T04:26:33;13.80;99.90
16263;DHT22;8239;48.594;8.598;2023-07-24T04:29:00;13.90;99.90
16263;DHT22;8239;48.594;8.598;2023-07-24T04:31:27;13.90;99.90
16263;DHT22;8239;48.594;8.598;2023-07-24T04:33:54;13.90;99.90
16263;DHT22;8239;48.594;8.598;2023-07-24T04:36:23;13.90;99.90
16263;DHT22;8239;48.594;8.598;2023-07-24T04:38:50;13.90;99.90
16263;DHT22;8239;48.594;8.598;2023-07-24T04:41:16;13.90;99.90
16263;DHT22;8239;48.594;8.598;2023-07-24T04:43:43;14.00;99.90
16263;DHT22;8239;48.594;8.598;2023-07-24T04:46:10;14.00;99.90
16263;DHT22;8239;48.594;8.598;2023-07-24T04:48:37;14.10;99.90
16263;DHT22;8239;48.594;8.598;2023-07-24T04:51:04;14.10;99.90
16263;DHT22;8239;48.594;8.598;2023-07-24T04:53:32;14.20;99.90
16263;DHT22;8239;48.594;8.598;2023-07-24T04:55:59;14.20;99.90
16263;DHT22;8239;48.594;8.598;2023-07-24T04:58:26;14.30;99.90
16263;DHT22;8239;48.594;8.598;2023-07-24T05:00:53;14.30;99.90
16263;DHT22;8239;48.594;8.598;2023-07-24T05:03:20;14.40;99.90
16263;DHT22;8239;48.594;8.598;2023-07-24T05:05:54;14.40;99.90
16263;DHT22;8239;48.594;8.598;2023-07-24T05:08:21;14.40;99.90
16263;DHT22;8239;48.594;8.598;2023-07-24T05:10:59;14.40;99.90
16263;DHT22;8239;48.594;8.598;2023-07-24T05:13:28;14.50;99.90
16263;DHT22;8239;48.594;8.598;2023-07-24T05:15:55;14.60;99.90
16263;DHT22;8239;48.594;8.598;2023-07-24T05:18:22;14.70;99.90
16263;DHT22;8239;48.594;8.598;2023-07-24T05:20:49;14.70;99.90
16263;DHT22;8239;48.594;8.598;2023-07-24T05:23:17;14.80;99.90
16263;DHT22;8239;48.594;8.598;2023-07-24T05:25:44;14.80;99.90
16263;DHT22;8239;48.594;8.598;2023-07-24T05:28:12;14.80;99.90
16263;DHT22;8239;48.594;8.598;2023-07-24T05:30:39;14.80;99.90
16263;DHT22;8239;48.594;8.598;2023-07-24T05:33:06;14.80;99.90
16263;DHT22;8239;48.594;8.598;2023-07-24T05:35:33;14.90;99.90
16263;DHT22;8239;48.594;8.598;2023-07-24T05:38:00;14.90;99.90
16263;DHT22;8239;48.594;8.598;2023-07-24T05:40:26;15.00;99.90
16263;DHT22;8239;48.594;8.598;2023-07-24T05:42:53;15.10;99.90
16263;DHT22;8239;48.594;8.598;2023-07-24T05:45:22;15.20;99.90
16263;DHT22;8239;48.594;8.598;2023-07-24T05:47:49;15.20;99.90
16263;DHT22;8239;48.594;8.598;2023-07-24T05:50:16;15.30;99.90
16263;DHT22;8239;48.594;8.598;2023-07-24T05:52:43;15.30;99.90
16263;DHT22;8239;48.594;8.598;2023-07-24T05:55:10;15.30;99.90
16263;DHT22;8239;48.594;8.598;2023-07-24T05:57:37;15.30;99.90
16263;DHT22;8239;48.594;8.598;2023-07-24T06:00:05;15.30;99.90
16263;DHT22;8239;48.594;8.598;2023-07-24T06:02:34;15.30;99.90
16263;DHT22;8239;48.594;8.598;2023-07-24T06:05:01;15.40;99.90
16263;DHT22;8239;48.594;8.598;2023-07-24T06:07:28;15.40;99.90
16263;DHT22;8239;48.594;8.598;2023-07-24T06:09:55;15.60;99.90
16263;DHT22;8239;48.594;8.598;2023-07-24T06:12:22;15.70;99.90
16263;DHT22;8239;48.594;8.598;2023-07-24T06:14:49;15.80;99.90
16263;DHT22;8239;48.594;8.598;2023-07-24T06:17:16;15.90;99.90
16263;DHT22;8239;48.594;8.598;2023-07-24T06:19:44;16.00;99.90
16263;DHT22;8239;48.594;8.598;2023-07-24T06:22:11;16.10;99.90
16263;DHT22;8239;48.594;8.598;2023-07-24T06:24:38;16.30;99.90
16263;DHT22;8239;48.594;8.598;2023-07-24T06:27:06;16.40;99.90
16263;DHT22;8239;48.594;8.598;2023-07-24T06:29:33;16.60;99.90
16263;DHT22;8239;48.594;8.598;2023-07-24T06:34:28;17.00;99.90
16263;DHT22;8239;48.594;8.598;2023-07-24T06:36:56;17.30;99.90
16263;DHT22;8239;48.594;8.598;2023-07-24T06:39:23;17.60;99.90
16263;DHT22;8239;48.594;8.598;2023-07-24T06:41:51;17.90;99.90
16263;DHT22;8239;48.594;8.598;2023-07-24T06:44:18;18.20;99.90
16263;DHT22;8239;48.594;8.598;2023-07-24T06:46:45;18.60;99.90
16263;DHT22;8239;48.594;8.598;2023-07-24T06:49:12;18.90;99.90
16263;DHT22;8239;48.594;8.598;2023-07-24T06:51:39;19.10;99.90
16263;DHT22;8239;48.594;8.598;2023-07-24T06:54:07;19.10;99.90
16263;DHT22;8239;48.594;8.598;2023-07-24T06:56:34;19.10;99.90
16263;DHT22;8239;48.594;8.598;2023-07-24T06:59:01;19.00;99.80
16263;DHT22;8239;48.594;8.598;2023-07-24T07:01:28;18.90;99.70
16263;DHT22;8239;48.594;8.598;2023-07-24T07:03:55;18.80;99.00
16263;DHT22;8239;48.594;8.598;2023-07-24T07:06:22;18.70;99.50
16263;DHT22;8239;48.594;8.598;2023-07-24T07:08:49;18.70;99.20
16263;DHT22;8239;48.594;8.598;2023-07-24T07:11:17;18.70;99.80
16263;DHT22;8239;48.594;8.598;2023-07-24T07:13:44;18.70;99.40
16263;DHT22;8239;48.594;8.598;2023-07-24T07:16:11;18.90;99.80
16263;DHT22;8239;48.594;8.598;2023-07-24T07:18:38;19.10;99.90
16263;DHT22;8239;48.594;8.598;2023-07-24T07:21:04;19.20;99.10
16263;DHT22;8239;48.594;8.598;2023-07-24T07:23:31;19.30;99.00
16263;DHT22;8239;48.594;8.598;2023-07-24T07:25:58;19.50;98.90
16263;DHT22;8239;48.594;8.598;2023-07-24T07:28:27;19.70;98.70
16263;DHT22;8239;48.594;8.598;2023-07-24T07:30:54;19.80;98.40
16263;DHT22;8239;48.594;8.598;2023-07-24T07:33:20;19.80;98.40
16263;DHT22;8239;48.594;8.598;2023-07-24T07:35:48;19.70;98.60
16263;DHT22;8239;48.594;8.598;2023-07-24T07:38:15;19.70;99.20
16263;DHT22;8239;48.594;8.598;2023-07-24T07:40:42;19.50;99.80
16263;DHT22;8239;48.594;8.598;2023-07-24T07:43:09;19.40;99.90
16263;DHT22;8239;48.594;8.598;2023-07-24T07:45:37;19.30;99.90
16263;DHT22;8239;48.594;8.598;2023-07-24T07:48:05;19.10;99.90
16263;DHT22;8239;48.594;8.598;2023-07-24T07:50:32;18.80;99.90
16263;DHT22;8239;48.594;8.598;2023-07-24T07:52:59;18.50;99.90
16263;DHT22;8239;48.594;8.598;2023-07-24T07:55:26;18.20;99.90
16263;DHT22;8239;48.594;8.598;2023-07-24T07:57:53;17.90;99.90
16263;DHT22;8239;48.594;8.598;2023-07-24T08:00:20;17.80;99.90
16263;DHT22;8239;48.594;8.598;2023-07-24T08:02:48;17.70;99.90
16263;DHT22;8239;48.594;8.598;2023-07-24T08:05:15;17.70;99.90
16263;DHT22;8239;48.594;8.598;2023-07-24T08:07:42;17.80;99.90
16263;DHT22;8239;48.594;8.598;2023-07-24T08:10:09;17.90;99.90
16263;DHT22;8239;48.594;8.598;2023-07-24T08:12:36;18.00;99.90
16263;DHT22;8239;48.594;8.598;2023-07-24T08:15:04;18.10;99.90
16263;DHT22;8239;48.594;8.598;2023-07-24T08:17:31;18.10;99.90
16263;DHT22;8239;48.594;8.598;2023-07-24T08:20:00;18.20;99.90
16263;DHT22;8239;48.594;8.598;2023-07-24T08:22:28;18.30;99.90
16263;DHT22;8239;48.594;8.598;2023-07-24T08:24:55;18.40;99.90
16263;DHT22;8239;48.594;8.598;2023-07-24T08:27:22;18.60;99.90
16263;DHT22;8239;48.594;8.598;2023-07-24T08:29:50;18.80;99.90
16263;DHT22;8239;48.594;8.598;2023-07-24T08:32:18;19.10;99.90
16263;DHT22;8239;48.594;8.598;2023-07-24T08:34:45;19.30;99.90
16263;DHT22;8239;48.594;8.598;2023-07-24T08:37:14;19.60;99.90
16263;DHT22;8239;48.594;8.598;2023-07-24T08:39:40;19.90;99.90
16263;DHT22;8239;48.594;8.598;2023-07-24T08:42:09;20.10;99.90
16263;DHT22;8239;48.594;8.598;2023-07-24T08:44:36;20.30;99.90
16263;DHT22;8239;48.594;8.598;2023-07-24T08:47:05;20.50;99.90
16263;DHT22;8239;48.594;8.598;2023-07-24T08:49:35;20.60;99.90
16263;DHT22;8239;48.594;8.598;2023-07-24T08:52:04;20.90;99.90
16263;DHT22;8239;48.594;8.598;2023-07-24T08:54:35;21.30;99.90
16263;DHT22;8239;48.594;8.598;2023-07-24T08:57:04;21.90;99.90
16263;DHT22;8239;48.594;8.598;2023-07-24T08:59:31;22.40;99.90
16263;DHT22;8239;48.594;8.598;2023-07-24T09:01:58;22.80;99.90
16263;DHT22;8239;48.594;8.598;2023-07-24T09:04:25;23.10;99.90
16263;DHT22;8239;48.594;8.598;2023-07-24T09:06:52;23.30;99.90
16263;DHT22;8239;48.594;8.598;2023-07-24T09:09:19;23.40;99.90
16263;DHT22;8239;48.594;8.598;2023-07-24T09:11:49;23.20;99.30
16263;DHT22;8239;48.594;8.598;2023-07-24T09:14:23;22.90;98.60
16263;DHT22;8239;48.594;8.598;2023-07-24T09:17:02;22.40;98.80
16263;DHT22;8239;48.594;8.598;2023-07-24T09:19:29;22.00;99.90
16263;DHT22;8239;48.594;8.598;2023-07-24T09:21:56;21.80;99.90
16263;DHT22;8239;48.594;8.598;2023-07-24T09:24:22;21.50;99.90
16263;DHT22;8239;48.594;8.598;2023-07-24T09:26:52;21.30;99.90
16263;DHT22;8239;48.594;8.598;2023-07-24T09:29:19;21.10;99.90
16263;DHT22;8239;48.594;8.598;2023-07-24T09:31:46;21.00;99.90
16263;DHT22;8239;48.594;8.598;2023-07-24T09:34:15;20.90;99.90
16263;DHT22;8239;48.594;8.598;2023-07-24T09:36:43;20.80;99.90
16263;DHT22;8239;48.594;8.598;2023-07-24T09:39:10;20.70;99.90
16263;DHT22;8239;48.594;8.598;2023-07-24T09:41:38;20.50;99.90
16263;DHT22;8239;48.594;8.598;2023-07-24T09:44:07;20.40;99.90
16263;DHT22;8239;48.594;8.598;2023-07-24T09:46:34;20.20;99.90
16263;DHT22;8239;48.594;8.598;2023-07-24T09:49:01;20.10;99.90
16263;DHT22;8239;48.594;8.598;2023-07-24T09:51:29;19.90;99.90
16263;DHT22;8239;48.594;8.598;2023-07-24T09:54:03;19.70;99.90
16263;DHT22;8239;48.594;8.598;2023-07-24T09:56:33;19.60;99.90
16263;DHT22;8239;48.594;8.598;2023-07-24T09:59:00;19.40;99.90
16263;DHT22;8239;48.594;8.598;2023-07-24T10:01:31;19.30;99.90
16263;DHT22;8239;48.594;8.598;2023-07-24T10:03:59;19.20;99.90
16263;DHT22;8239;48.594;8.598;2023-07-24T10:06:27;19.00;99.90
16263;DHT22;8239;48.594;8.598;2023-07-24T10:08:56;18.90;99.90
16263;DHT22;8239;48.594;8.598;2023-07-24T10:11:25;18.80;99.90
16263;DHT22;8239;48.594;8.598;2023-07-24T10:13:53;18.60;99.90
16263;DHT22;8239;48.594;8.598;2023-07-24T10:16:20;18.60;99.90
16263;DHT22;8239;48.594;8.598;2023-07-24T10:18:48;18.40;99.90
16263;DHT22;8239;48.594;8.598;2023-07-24T10:21:16;18.30;99.90
16263;DHT22;8239;48.594;8.598;2023-07-24T10:23:45;18.20;99.90
16263;DHT22;8239;48.594;8.598;2023-07-24T10:26:13;18.10;99.90
16263;DHT22;8239;48.594;8.598;2023-07-24T10:28:41;18.00;99.90
16263;DHT22;8239;48.594;8.598;2023-07-24T10:31:19;17.90;99.90
16263;DHT22;8239;48.594;8.598;2023-07-24T10:33:48;17.80;99.90
16263;DHT22;8239;48.594;8.598;2023-07-24T10:36:18;17.70;99.90
16263;DHT22;8239;48.594;8.598;2023-07-24T10:38:46;17.60;99.90
16263;DHT22;8239;48.594;8.598;2023-07-24T10:41:13;17.40;99.90
16263;DHT22;8239;48.594;8.598;2023-07-24T10:43:42;17.30;99.90
16263;DHT22;8239;48.594;8.598;2023-07-24T10:46:09;17.10;99.90
16263;DHT22;8239;48.594;8.598;2023-07-24T10:48:41;17.00;99.90
16263;DHT22;8239;48.594;8.598;2023-07-24T10:51:11;16.90;99.90
16263;DHT22;8239;48.594;8.598;2023-07-24T10:53:45;16.90;99.90
16263;DHT22;8239;48.594;8.598;2023-07-24T10:56:12;16.80;99.90
16263;DHT22;8239;48.594;8.598;2023-07-24T10:58:39;16.80;99.90
16263;DHT22;8239;48.594;8.598;2023-07-24T11:01:08;16.80;99.90
16263;DHT22;8239;48.594;8.598;2023-07-24T11:03:36;16.80;99.90
16263;DHT22;8239;48.594;8.598;2023-07-24T11:06:04;16.90;99.90
16263;DHT22;8239;48.594;8.598;2023-07-24T11:08:32;16.90;99.90
16263;DHT22;8239;48.594;8.598;2023-07-24T11:11:01;17.00;99.90
16263;DHT22;8239;48.594;8.598;2023-07-24T11:13:30;17.30;99.90
16263;DHT22;8239;48.594;8.598;2023-07-24T11:16:06;17.70;99.90
16263;DHT22;8239;48.594;8.598;2023-07-24T11:18:44;18.30;99.90
16263;DHT22;8239;48.594;8.598;2023-07-24T11:21:14;19.50;99.90
16263;DHT22;8239;48.594;8.598;2023-07-24T11:23:47;20.80;99.90
16263;DHT22;8239;48.594;8.598;2023-07-24T11:26:14;22.10;99.90
16263;DHT22;8239;48.594;8.598;2023-07-24T11:28:42;22.80;99.90
16263;DHT22;8239;48.594;8.598;2023-07-24T11:31:09;23.20;99.90
16263;DHT22;8239;48.594;8.598;2023-07-24T11:33:37;23.20;99.90
16263;DHT22;8239;48.594;8.598;2023-07-24T11:36:04;23.20;99.90
16263;DHT22;8239;48.594;8.598;2023-07-24T11:38:32;23.30;99.90
16263;DHT22;8239;48.594;8.598;2023-07-24T11:41:00;23.40;99.90
16263;DHT22;8239;48.594;8.598;2023-07-24T11:43:27;23.50;99.90
16263;DHT22;8239;48.594;8.598;2023-07-24T11:45:54;23.60;99.90
16263;DHT22;8239;48.594;8.598;2023-07-24T11:48:23;23.70;98.60
16263;DHT22;8239;48.594;8.598;2023-07-24T11:50:52;23.90;97.80
16263;DHT22;8239;48.594;8.598;2023-07-24T11:53:21;23.90;97.20
16263;DHT22;8239;48.594;8.598;2023-07-24T11:55:49;23.80;96.50
16263;DHT22;8239;48.594;8.598;2023-07-24T11:58:18;23.60;96.50
16263;DHT22;8239;48.594;8.598;2023-07-24T12:00:45;23.50;97.10
16263;DHT22;8239;48.594;8.598;2023-07-24T12:03:13;23.50;97.30
16263;DHT22;8239;48.594;8.598;2023-07-24T12:05:40;23.50;97.10
16263;DHT22;8239;48.594;8.598;2023-07-24T12:08:08;23.60;97.50
16263;DHT22;8239;48.594;8.598;2023-07-24T12:10:37;23.60;96.20
16263;DHT22;8239;48.594;8.598;2023-07-24T12:13:04;23.60;94.70
16263;DHT22;8239;48.594;8.598;2023-07-24T12:15:33;23.30;95.70
16263;DHT22;8239;48.594;8.598;2023-07-24T12:18:01;22.90;95.50
16263;DHT22;8239;48.594;8.598;2023-07-24T12:20:28;22.70;96.20
16263;DHT22;8239;48.594;8.598;2023-07-24T12:22:56;22.70;96.90
16263;DHT22;8239;48.594;8.598;2023-07-24T12:25:23;22.90;97.80
16263;DHT22;8239;48.594;8.598;2023-07-24T12:27:50;23.20;95.90
16263;DHT22;8239;48.594;8.598;2023-07-24T12:30:18;23.40;96.20
16263;DHT22;8239;48.594;8.598;2023-07-24T12:32:46;23.60;95.00
16263;DHT22;8239;48.594;8.598;2023-07-24T12:35:14;23.60;94.80
16263;DHT22;8239;48.594;8.598;2023-07-24T12:37:41;23.70;94.60
16263;DHT22;8239;48.594;8.598;2023-07-24T12:40:09;23.70;94.70
16263;DHT22;8239;48.594;8.598;2023-07-24T12:42:36;23.90;95.20
16263;DHT22;8239;48.594;8.598;2023-07-24T12:45:04;24.00;94.50
16263;DHT22;8239;48.594;8.598;2023-07-24T12:47:32;24.20;94.60
16263;DHT22;8239;48.594;8.598;2023-07-24T12:50:00;24.50;94.30
16263;DHT22;8239;48.594;8.598;2023-07-24T12:52:29;24.90;91.50
16263;DHT22;8239;48.594;8.598;2023-07-24T12:54:56;25.00;90.60
16263;DHT22;8239;48.594;8.598;2023-07-24T12:57:23;25.10;85.70
16263;DHT22;8239;48.594;8.598;2023-07-24T12:59:51;25.00;87.60
16263;DHT22;8239;48.594;8.598;2023-07-24T13:02:18;25.30;89.50
16263;DHT22;8239;48.594;8.598;2023-07-24T13:04:46;25.90;86.70
16263;DHT22;8239;48.594;8.598;2023-07-24T13:07:14;26.10;80.40
16263;DHT22;8239;48.594;8.598;2023-07-24T13:09:41;25.80;78.20
16263;DHT22;8239;48.594;8.598;2023-07-24T13:12:09;25.40;78.10
16263;DHT22;8239;48.594;8.598;2023-07-24T13:14:36;25.20;80.20
16263;DHT22;8239;48.594;8.598;2023-07-24T13:17:03;24.90;80.00
16263;DHT22;8239;48.594;8.598;2023-07-24T13:19:30;24.90;79.90
16263;DHT22;8239;48.594;8.598;2023-07-24T13:21:57;24.80;79.40
16263;DHT22;8239;48.594;8.598;2023-07-24T13:24:26;24.60;80.50
16263;DHT22;8239;48.594;8.598;2023-07-24T13:26:53;24.70;82.70
16263;DHT22;8239;48.594;8.598;2023-07-24T13:29:20;25.20;84.30
16263;DHT22;8239;48.594;8.598;2023-07-24T13:31:47;25.70;80.80
16263;DHT22;8239;48.594;8.598;2023-07-24T13:34:16;26.30;79.20
16263;DHT22;8239;48.594;8.598;2023-07-24T13:36:45;26.60;76.90
16263;DHT22;8239;48.594;8.598;2023-07-24T13:39:12;27.10;77.50
16263;DHT22;8239;48.594;8.598;2023-07-24T13:41:40;27.50;74.80
16263;DHT22;8239;48.594;8.598;2023-07-24T13:44:08;27.70;74.20
16263;DHT22;8239;48.594;8.598;2023-07-24T13:46:35;27.80;71.50
16263;DHT22;8239;48.594;8.598;2023-07-24T13:49:02;27.90;69.30
16263;DHT22;8239;48.594;8.598;2023-07-24T13:51:29;27.50;68.80
16263;DHT22;8239;48.594;8.598;2023-07-24T13:53:56;27.40;67.30
16263;DHT22;8239;48.594;8.598;2023-07-24T13:56:23;27.10;68.30
16263;DHT22;8239;48.594;8.598;2023-07-24T13:58:51;26.90;69.50
16263;DHT22;8239;48.594;8.598;2023-07-24T14:01:18;26.80;70.50
16263;DHT22;8239;48.594;8.598;2023-07-24T14:03:45;26.60;70.20
16263;DHT22;8239;48.594;8.598;2023-07-24T14:06:12;26.50;71.20
16263;DHT22;8239;48.594;8.598;2023-07-24T14:08:39;26.50;71.90
16263;DHT22;8239;48.594;8.598;2023-07-24T14:11:06;26.20;71.60
16263;DHT22;8239;48.594;8.598;2023-07-24T14:13:33;25.80;72.40
16263;DHT22;8239;48.594;8.598;2023-07-24T14:16:02;25.60;73.80
16263;DHT22;8239;48.594;8.598;2023-07-24T14:18:29;25.40;73.60
16263;DHT22;8239;48.594;8.598;2023-07-24T14:20:56;25.30;72.80
16263;DHT22;8239;48.594;8.598;2023-07-24T14:23:25;25.30;74.40
16263;DHT22;8239;48.594;8.598;2023-07-24T14:25:52;25.50;73.70
16263;DHT22;8239;48.594;8.598;2023-07-24T14:28:18;25.40;71.40
16263;DHT22;8239;48.594;8.598;2023-07-24T14:30:45;25.30;72.50
16263;DHT22;8239;48.594;8.598;2023-07-24T14:33:14;25.10;72.70
16263;DHT22;8239;48.594;8.598;2023-07-24T14:35:41;24.90;73.50
16263;DHT22;8239;48.594;8.598;2023-07-24T14:38:08;24.80;74.10
16263;DHT22;8239;48.594;8.598;2023-07-24T14:40:35;24.90;75.30
16263;DHT22;8239;48.594;8.598;2023-07-24T14:43:02;25.10;73.90
16263;DHT22;8239;48.594;8.598;2023-07-24T14:45:29;25.50;74.20
16263;DHT22;8239;48.594;8.598;2023-07-24T14:47:56;25.70;73.40
16263;DHT22;8239;48.594;8.598;2023-07-24T14:50:24;25.60;71.10
16263;DHT22;8239;48.594;8.598;2023-07-24T14:52:51;25.50;71.90
16263;DHT22;8239;48.594;8.598;2023-07-24T14:55:18;25.30;72.70
16263;DHT22;8239;48.594;8.598;2023-07-24T14:57:45;25.20;73.30
16263;DHT22;8239;48.594;8.598;2023-07-24T15:00:13;25.20;73.90
16263;DHT22;8239;48.594;8.598;2023-07-24T15:02:41;25.00;74.10
16263;DHT22;8239;48.594;8.598;2023-07-24T15:05:08;25.10;73.90
16263;DHT22;8239;48.594;8.598;2023-07-24T15:07:37;25.00;73.30
16263;DHT22;8239;48.594;8.598;2023-07-24T15:10:05;24.70;73.50
16263;DHT22;8239;48.594;8.598;2023-07-24T15:12:32;24.40;74.40
16263;DHT22;8239;48.594;8.598;2023-07-24T15:14:59;24.30;75.70
16263;DHT22;8239;48.594;8.598;2023-07-24T15:17:26;24.20;75.70
16263;DHT22;8239;48.594;8.598;2023-07-24T15:19:53;24.10;76.00
16263;DHT22;8239;48.594;8.598;2023-07-24T15:22:20;23.90;77.20
16263;DHT22;8239;48.594;8.598;2023-07-24T15:24:50;23.80;76.20
16263;DHT22;8239;48.594;8.598;2023-07-24T15:27:17;23.60;77.20
16263;DHT22;8239;48.594;8.598;2023-07-24T15:29:43;23.30;77.10
16263;DHT22;8239;48.594;8.598;2023-07-24T15:32:12;23.10;77.80
16263;DHT22;8239;48.594;8.598;2023-07-24T15:34:39;23.00;78.70
16263;DHT22;8239;48.594;8.598;2023-07-24T15:37:06;23.00;79.70
16263;DHT22;8239;48.594;8.598;2023-07-24T15:39:33;23.10;80.00
16263;DHT22;8239;48.594;8.598;2023-07-24T15:42:01;23.20;79.40
16263;DHT22;8239;48.594;8.598;2023-07-24T15:44:28;23.00;78.70
16263;DHT22;8239;48.594;8.598;2023-07-24T15:46:55;22.70;78.70
16263;DHT22;8239;48.594;8.598;2023-07-24T15:49:22;22.40;79.70